Time;durP1;ratioP1;P1;durP2;ratioP2;P2;SDS_P1;SDS_P2;PMS_P1;PMS_P2;Temp;Humidity;BMP_temperature;BMP_pressure;BME280_temperature;BME280_humidity;BME280_pressure;Samples;Min_cycle;Max_cycle;Signal;HPM_P1;HPM_P2
2023/05/28 00:00:27;;;;;;;13.88;4.65;;;;;;;10.95;64.86;96237.09;2098652;28;20052;-58
2023/05/28 00:01:28;;;;;;;16.02;5.07;;;;;;;10.93;65.53;96228.50;2098577;28;20068;-58
2023/05/28 00:02:29;;;;;;;12.77;4.45;;;;;;;10.95;65.06;96227.53;2098901;28;20053;-58
2023/05/28 00:03:35;;;;;;;15.15;5.10;;;;;;;10.95;65.71;96230.13;2098591;28;20389;-58
2023/05/28 00:04:36;;;;;;;11.05;5.03;;;;;;;11.01;65.52;96223.81;2099256;28;20045;-58
2023/05/28 00:05:37;;;;;;;10.68;4.30;;;;;;;11.01;65.01;96226.41;2099351;28;20041;-57
2023/05/28 00:06:38;;;;;;;12.93;4.50;;;;;;;11.04;65.04;96228.88;2098481;28;20060;-58
2023/05/28 00:07:41;;;;;;;13.23;4.82;;;;;;;11.01;65.23;96229.88;2099303;28;20045;-58
2023/05/28 00:08:42;;;;;;;14.07;5.13;;;;;;;10.98;64.89;96229.16;2098396;28;20053;-58
2023/05/28 00:09:43;;;;;;;13.00;4.68;;;;;;;10.97;65.04;96223.09;2099316;28;20053;-58
2023/05/28 00:10:44;;;;;;;13.82;4.75;;;;;;;10.96;65.73;96223.16;2098680;28;20101;-58
2023/05/28 00:11:46;;;;;;;13.93;5.38;;;;;;;10.95;65.75;96224.09;2098623;28;20079;-58
2023/05/28 00:12:47;;;;;;;8.05;4.68;;;;;;;10.92;65.14;96214.69;2098522;28;20104;-58
2023/05/28 00:13:48;;;;;;;11.85;5.18;;;;;;;10.94;65.15;96217.22;2098442;28;20096;-58
2023/05/28 00:14:49;;;;;;;11.80;5.07;;;;;;;10.79;65.74;96201.38;2099288;28;20388;-58
2023/05/28 00:15:50;;;;;;;13.75;5.18;;;;;;;10.84;65.93;96216.78;2098552;28;20058;-58
2023/05/28 00:16:51;;;;;;;10.80;5.10;;;;;;;10.82;66.37;96216.00;2098635;28;20056;-58
2023/05/28 00:17:53;;;;;;;12.20;5.35;;;;;;;10.84;65.79;96219.38;2098832;28;20075;-58
2023/05/28 00:18:54;;;;;;;12.23;5.10;;;;;;;10.87;65.49;96215.78;2098547;28;20052;-58
2023/05/28 00:19:55;;;;;;;12.82;4.45;;;;;;;10.88;66.26;96213.16;2099198;28;20036;-57
2023/05/28 00:20:56;;;;;;;13.98;5.20;;;;;;;10.85;65.75;96204.63;2099214;28;20381;-58
2023/05/28 00:21:57;;;;;;;11.35;5.20;;;;;;;10.73;65.72;96193.03;2098455;28;20052;-57
2023/05/28 00:22:58;;;;;;;13.65;4.47;;;;;;;10.80;66.33;96212.66;2099201;28;20051;-58
2023/05/28 00:24:00;;;;;;;12.63;4.93;;;;;;;10.77;66.57;96208.44;2098448;28;20124;-59
2023/05/28 00:25:01;;;;;;;13.43;5.60;;;;;;;10.73;65.73;96208.63;2098197;28;20055;-60
2023/05/28 00:26:02;;;;;;;14.02;4.93;;;;;;;10.67;65.68;96209.75;2098491;28;20052;-60
2023/05/28 00:27:04;;;;;;;11.88;5.15;;;;;;;10.64;66.64;96204.69;2099054;28;20047;-59
2023/05/28 00:28:05;;;;;;;11.68;5.40;;;;;;;10.62;66.35;96211.69;2098278;28;20106;-59
2023/05/28 00:29:06;;;;;;;13.45;5.65;;;;;;;10.57;66.19;96201.50;2098979;28;20055;-60
2023/05/28 00:30:07;;;;;;;9.57;4.95;;;;;;;10.54;66.42;96206.00;2098438;28;20067;-59
2023/05/28 00:31:08;;;;;;;13.40;4.93;;;;;;;10.53;66.86;96201.69;2090371;28;20477;-59
2023/05/28 00:32:10;;;;;;;14.52;5.30;;;;;;;10.51;66.71;96206.13;2089538;28;20059;-59
2023/05/28 00:33:11;;;;;;;11.07;5.00;;;;;;;10.38;66.46;96185.88;2089260;28;20060;-59
2023/05/28 00:34:12;;;;;;;14.35;5.03;;;;;;;10.44;66.69;96202.94;2081821;28;20049;-60
2023/05/28 00:35:14;;;;;;;10.05;4.97;;;;;;;10.43;67.41;96205.63;2089670;28;20068;-60
2023/05/28 00:36:15;;;;;;;10.88;4.72;;;;;;;10.40;67.15;96197.94;2099040;28;20063;-59
2023/05/28 00:37:16;;;;;;;10.20;4.80;;;;;;;10.38;68.08;96203.22;2098390;28;20044;-59
2023/05/28 00:38:17;;;;;;;12.88;5.05;;;;;;;10.37;67.80;96197.19;2089670;28;20142;-60
2023/05/28 00:39:18;;;;;;;12.30;4.90;;;;;;;10.36;67.92;96200.69;2089643;28;20060;-59
2023/05/28 00:40:19;;;;;;;10.48;4.90;;;;;;;10.33;67.03;96200.81;2099134;28;20052;-59
2023/05/28 00:41:22;;;;;;;11.35;4.55;;;;;;;10.32;67.42;96203.50;2090004;28;20049;-59
2023/05/28 00:42:24;;;;;;;11.05;4.32;;;;;;;10.30;68.07;96197.50;2090266;28;20056;-60
2023/05/28 00:43:25;;;;;;;13.25;5.55;;;;;;;10.29;67.98;96199.28;2098349;28;20052;-59
2023/05/28 00:44:27;;;;;;;10.57;4.47;;;;;;;10.27;68.18;96197.63;2090186;28;20056;-60
2023/05/28 00:45:28;;;;;;;9.90;4.72;;;;;;;10.23;67.82;96194.28;2089398;28;20484;-60
2023/05/28 00:46:29;;;;;;;8.85;4.45;;;;;;;10.19;68.45;96195.34;2098488;28;20067;-59
2023/05/28 00:47:30;;;;;;;12.60;5.10;;;;;;;10.11;68.25;96179.25;2089453;28;20093;-60
2023/05/28 00:48:31;;;;;;;10.63;4.68;;;;;;;10.23;68.08;96189.09;2081975;28;20045;-59
2023/05/28 00:49:32;;;;;;;16.38;5.18;;;;;;;10.19;68.44;96191.91;2089470;28;20053;-60
2023/05/28 00:50:34;;;;;;;14.45;5.35;;;;;;;10.14;68.00;96187.75;2098038;28;20048;-59
2023/05/28 00:51:35;;;;;;;10.27;4.88;;;;;;;10.09;68.70;96194.03;2098239;28;20048;-60
2023/05/28 00:52:36;;;;;;;11.75;5.18;;;;;;;10.07;68.70;96190.66;2089277;28;20053;-59
2023/05/28 00:53:37;;;;;;;16.00;5.28;;;;;;;10.04;69.18;96185.59;2081771;28;20069;-59
2023/05/28 00:54:39;;;;;;;12.32;4.63;;;;;;;10.02;69.18;96190.00;2090115;28;20472;-59
2023/05/28 00:55:40;;;;;;;12.73;4.85;;;;;;;9.87;68.90;96174.19;2089507;28;20053;-60
2023/05/28 00:56:43;;;;;;;12.15;4.90;;;;;;;9.97;69.41;96189.34;2090024;28;20474;-60
2023/05/28 00:57:45;;;;;;;9.60;4.85;;;;;;;9.94;69.29;96191.19;2089206;28;20476;-59
2023/05/28 00:58:48;;;;;;;10.90;4.60;;;;;;;9.91;69.46;96191.28;2081572;28;20049;-60
2023/05/28 00:59:50;;;;;;;11.20;5.25;;;;;;;9.88;69.70;96194.03;2081935;28;20072;-60
2023/05/28 01:00:51;;;;;;;13.73;5.28;;;;;;;9.83;69.85;96189.94;2089573;28;20056;-60
2023/05/28 01:01:52;;;;;;;11.85;5.43;;;;;;;9.83;69.94;96195.94;2089710;28;20056;-60
2023/05/28 01:02:53;;;;;;;12.13;5.30;;;;;;;9.79;70.28;96194.41;2081194;28;20045;-59
2023/05/28 01:03:54;;;;;;;14.88;5.22;;;;;;;9.71;70.58;96186.09;2089900;28;20049;-60
2023/05/28 01:04:55;;;;;;;17.45;5.57;;;;;;;9.70;70.61;96192.16;2089294;28;20484;-60
2023/05/28 01:05:56;;;;;;;10.65;5.10;;;;;;;9.67;70.92;96187.94;2089989;28;20049;-59
2023/05/28 01:06:58;;;;;;;14.07;5.18;;;;;;;9.60;71.34;96183.09;2089478;28;20049;-60
2023/05/28 01:08:00;;;;;;;12.52;5.20;;;;;;;9.53;70.94;96172.13;2081626;28;20076;-60
2023/05/28 01:09:01;;;;;;;9.85;5.00;;;;;;;9.66;71.01;96188.88;2065782;28;20042;-58
2023/05/28 01:10:02;;;;;;;11.52;4.90;;;;;;;9.65;70.84;96191.50;2081535;28;20041;-58
2023/05/28 01:11:04;;;;;;;11.02;4.82;;;;;;;9.61;70.91;96185.63;2089181;28;20064;-58
2023/05/28 01:12:06;;;;;;;14.13;4.90;;;;;;;9.57;71.04;96188.38;2073645;28;20521;-58
2023/05/28 01:13:07;;;;;;;13.73;5.75;;;;;;;9.52;71.46;96188.59;2073196;28;20453;-58
2023/05/28 01:14:09;;;;;;;15.10;5.13;;;;;;;9.52;71.51;96190.34;2073081;28;20053;-58
2023/05/28 01:15:10;;;;;;;13.48;5.03;;;;;;;9.50;72.10;96188.63;2072998;28;20061;-57
2023/05/28 01:16:11;;;;;;;13.60;5.13;;;;;;;9.38;71.68;96173.59;2081564;28;20521;-58
2023/05/28 01:17:12;;;;;;;15.02;5.95;;;;;;;9.47;72.11;96190.53;2089512;28;20049;-57
2023/05/28 01:18:14;;;;;;;13.07;5.30;;;;;;;9.41;71.63;96186.44;2089217;28;20056;-58
2023/05/28 01:19:16;;;;;;;11.48;5.55;;;;;;;9.28;72.22;96170.50;2081565;28;20394;-58
2023/05/28 01:20:17;;;;;;;9.27;5.03;;;;;;;9.41;72.22;96188.16;2073442;28;20050;-57
2023/05/28 01:21:18;;;;;;;11.60;5.20;;;;;;;9.38;71.66;96186.56;2081179;28;20057;-58
2023/05/28 01:22:20;;;;;;;12.95;5.57;;;;;;;9.35;72.03;96184.06;2072990;28;20053;-58
2023/05/28 01:23:22;;;;;;;13.60;5.63;;;;;;;9.34;72.17;96194.50;2065111;28;20058;-61
2023/05/28 01:24:23;;;;;;;12.60;5.15;;;;;;;9.33;72.33;96193.66;2057283;28;20058;-62
2023/05/28 01:25:25;;;;;;;11.32;5.22;;;;;;;9.31;72.53;96189.44;2056930;28;20062;-61
2023/05/28 01:26:27;;;;;;;11.25;5.47;;;;;;;9.28;72.55;96188.66;2057030;28;20495;-62
2023/05/28 01:27:28;;;;;;;14.27;5.45;;;;;;;9.26;72.59;96187.03;2073252;28;20053;-61
2023/05/28 01:28:29;;;;;;;13.88;6.03;;;;;;;9.23;72.82;96187.16;2081054;28;20053;-61
2023/05/28 01:29:30;;;;;;;13.07;5.72;;;;;;;9.20;73.09;96180.34;2072699;28;20061;-62
2023/05/28 01:30:32;;;;;;;16.98;6.03;;;;;;;9.18;73.28;96186.47;2081294;28;20053;-62
2023/05/28 01:31:33;;;;;;;12.60;5.32;;;;;;;9.18;73.41;96181.28;2089545;28;20045;-62
2023/05/28 01:32:36;;;;;;;10.70;5.30;;;;;;;9.20;73.57;96175.16;2081379;28;20053;-62
2023/05/28 01:33:38;;;;;;;15.05;5.50;;;;;;;9.17;73.75;96175.28;2088748;28;20052;-62
2023/05/28 01:34:40;;;;;;;13.15;5.50;;;;;;;9.19;73.71;96188.16;2089098;28;20080;-62
2023/05/28 01:35:41;;;;;;;14.27;5.75;;;;;;;9.13;73.29;96178.88;2080977;28;20180;-62
2023/05/28 01:36:54;;;;;;;9.30;5.22;;;;;;;9.13;73.26;96178.03;2073029;28;20057;-62
2023/05/28 01:37:57;;;;;;;10.70;4.85;;;;;;;9.14;73.44;96179.72;2082728;28;20135;-62
2023/05/28 01:39:00;;;;;;;14.38;5.50;;;;;;;9.10;73.27;96172.97;2074214;28;20086;-59
2023/05/28 01:40:03;;;;;;;14.80;5.20;;;;;;;9.01;73.91;96164.66;2073848;28;20056;-59
2023/05/28 01:41:04;;;;;;;12.63;5.25;;;;;;;9.09;73.26;96181.63;2081799;28;20037;-59
2023/05/28 01:42:06;;;;;;;10.63;5.03;;;;;;;9.04;73.31;96174.91;2073340;28;20050;-59
2023/05/28 01:43:07;;;;;;;11.68;4.95;;;;;;;9.04;73.29;96177.47;2081504;28;20049;-59
2023/05/28 01:44:12;;;;;;;18.33;5.43;;;;;;;9.03;73.55;96178.41;2097869;28;20052;-59
2023/05/28 01:45:13;;;;;;;11.52;5.20;;;;;;;8.94;73.27;96165.78;2088210;28;20481;-59
2023/05/28 01:46:15;;;;;;;11.65;4.90;;;;;;;9.03;73.46;96183.59;2065662;28;20065;-59
2023/05/28 01:47:16;;;;;;;10.15;5.50;;;;;;;9.02;73.45;96178.44;2064962;28;20065;-59
2023/05/28 01:48:17;;;;;;;16.55;5.85;;;;;;;9.03;72.85;96180.13;2072722;28;20050;-59
2023/05/28 01:49:19;;;;;;;13.45;5.63;;;;;;;9.02;72.90;96175.84;2056912;28;20058;-59
2023/05/28 01:50:20;;;;;;;11.48;5.32;;;;;;;8.95;73.06;96166.63;2057239;28;20054;-59
2023/05/28 01:51:22;;;;;;;14.63;5.32;;;;;;;8.94;73.04;96165.78;2073159;28;20462;-59
2023/05/28 01:52:23;;;;;;;14.30;5.32;;;;;;;8.95;73.06;96171.81;2080596;28;20049;-59
2023/05/28 01:53:24;;;;;;;13.27;4.90;;;;;;;8.99;73.66;96182.00;2072763;28;20406;-59
2023/05/28 01:54:26;;;;;;;13.43;5.30;;;;;;;9.00;73.26;96180.25;2080956;28;20050;-59
2023/05/28 01:55:29;;;;;;;9.02;4.72;;;;;;;8.99;73.42;96179.41;2080700;28;20057;-59
2023/05/28 01:56:30;;;;;;;12.95;5.47;;;;;;;8.99;73.02;96184.59;2080661;28;20079;-59
2023/05/28 01:57:31;;;;;;;11.70;5.28;;;;;;;9.00;72.92;96182.84;2081119;28;20493;-59
2023/05/28 01:58:33;;;;;;;14.27;5.60;;;;;;;9.00;73.41;96183.66;2080808;28;20053;-59
2023/05/28 01:59:35;;;;;;;13.85;5.97;;;;;;;9.00;73.58;96178.50;2080746;28;20064;-59
2023/05/28 02:00:42;;;;;;;12.73;5.70;;;;;;;9.05;73.53;96183.50;2080876;28;20054;-59
2023/05/28 02:01:43;;;;;;;14.82;5.45;;;;;;;9.02;73.79;96179.28;2073046;28;20053;-60
2023/05/28 02:02:46;;;;;;;9.20;4.80;;;;;;;8.98;73.62;96180.31;2065973;28;20054;-59
2023/05/28 02:03:51;;;;;;;13.68;5.32;;;;;;;9.00;73.36;96185.41;2081694;28;20046;-59
2023/05/28 02:04:53;;;;;;;12.93;5.45;;;;;;;9.02;73.09;96183.63;2089061;28;20432;-59
2023/05/28 02:05:56;;;;;;;10.38;5.32;;;;;;;9.08;72.75;96191.16;2088876;28;20049;-60
2023/05/28 02:06:58;;;;;;;10.60;4.88;;;;;;;9.05;72.73;96179.16;2080710;28;20480;-59
2023/05/28 02:07:59;;;;;;;10.95;5.43;;;;;;;9.16;72.30;96188.28;2089264;28;20053;-60
2023/05/28 02:09:03;;;;;;;12.18;5.40;;;;;;;9.14;72.32;96184.88;2088514;28;20060;-59
2023/05/28 02:10:05;;;;;;;11.90;5.30;;;;;;;9.15;71.74;96184.84;2089379;28;20072;-59
2023/05/28 02:11:06;;;;;;;11.15;5.03;;;;;;;9.13;72.11;96183.22;2097763;28;20075;-59
2023/05/28 02:12:07;;;;;;;13.18;5.43;;;;;;;9.11;72.37;96185.00;2097634;28;20421;-59
2023/05/28 02:13:08;;;;;;;11.73;5.45;;;;;;;9.11;72.25;96187.59;2089548;28;20424;-59
2023/05/28 02:14:13;;;;;;;10.65;5.45;;;;;;;9.10;72.02;96189.34;2089298;28;20078;-59
2023/05/28 02:15:15;;;;;;;10.50;5.05;;;;;;;9.09;72.00;96192.00;2088577;28;20064;-59
2023/05/28 02:16:18;;;;;;;14.43;5.35;;;;;;;9.05;72.19;96189.53;2081488;28;20057;-59
2023/05/28 02:17:20;;;;;;;12.95;5.38;;;;;;;9.01;72.04;96187.97;2088928;28;20493;-59
2023/05/28 02:18:21;;;;;;;13.68;5.38;;;;;;;8.96;71.92;96186.47;2081152;28;20049;-59
2023/05/28 02:19:24;;;;;;;11.82;4.97;;;;;;;8.95;72.21;96185.59;2080256;28;20378;-59
2023/05/28 02:20:25;;;;;;;9.57;5.10;;;;;;;8.93;72.52;96187.41;2081111;28;20094;-59
2023/05/28 02:21:28;;;;;;;9.80;5.03;;;;;;;8.92;72.71;96184.88;2080911;28;20049;-59
2023/05/28 02:22:29;;;;;;;13.25;5.13;;;;;;;8.92;72.48;96187.47;2088897;28;20060;-59
2023/05/28 02:23:30;;;;;;;13.05;5.32;;;;;;;8.93;72.22;96178.81;2089380;28;20045;-62
2023/05/28 02:24:31;;;;;;;16.70;5.65;;;;;;;8.93;72.63;96184.00;2088644;28;20057;-62
2023/05/28 02:25:32;;;;;;;10.80;5.20;;;;;;;8.90;72.44;96177.19;2098089;28;20048;-62
2023/05/28 02:26:34;;;;;;;12.95;5.28;;;;;;;8.90;72.19;96182.34;2088701;28;20507;-62
2023/05/28 02:27:35;;;;;;;10.75;4.93;;;;;;;8.95;72.12;96180.41;2080620;28;20057;-62
2023/05/28 02:28:36;;;;;;;13.52;5.28;;;;;;;8.92;72.08;96185.72;2089724;28;20044;-62
2023/05/28 02:29:38;;;;;;;12.40;5.22;;;;;;;8.82;72.31;96169.69;2097415;28;20428;-62
2023/05/28 02:30:40;;;;;;;10.18;5.18;;;;;;;8.95;72.20;96179.56;2088745;28;20045;-62
2023/05/28 02:31:41;;;;;;;10.25;4.80;;;;;;;8.97;71.70;96181.19;2081010;28;20049;-62
2023/05/28 02:32:42;;;;;;;13.50;5.38;;;;;;;8.94;71.62;96178.72;2080882;28;20057;-62
2023/05/28 02:33:43;;;;;;;10.20;4.80;;;;;;;8.92;72.18;96175.34;2088964;28;20052;-62
2023/05/28 02:34:44;;;;;;;13.23;5.30;;;;;;;8.91;72.37;96172.84;2097655;28;20060;-62
2023/05/28 02:35:45;;;;;;;11.82;4.93;;;;;;;8.87;72.08;96172.09;2097411;28;20056;-62
2023/05/28 02:36:47;;;;;;;14.77;5.50;;;;;;;8.83;72.78;96181.72;2088462;28;20092;-62
2023/05/28 02:37:48;;;;;;;11.73;5.25;;;;;;;8.76;72.63;96164.72;2080819;28;20049;-62
2023/05/28 02:38:49;;;;;;;10.63;5.03;;;;;;;8.74;72.89;96160.50;2081165;28;20046;-62
2023/05/28 02:39:54;;;;;;;12.27;5.30;;;;;;;8.71;72.57;96168.38;2081500;28;20045;-61
2023/05/28 02:40:55;;;;;;;14.25;5.78;;;;;;;8.76;72.58;96174.25;2080183;28;20436;-62
2023/05/28 02:41:56;;;;;;;13.15;5.25;;;;;;;8.73;72.89;96180.38;2089363;28;20041;-62
2023/05/28 02:42:58;;;;;;;12.77;5.13;;;;;;;8.68;72.89;96179.69;2089169;28;20044;-62
2023/05/28 02:43:59;;;;;;;11.63;5.22;;;;;;;8.68;72.87;96184.03;2088904;28;20040;-62
2023/05/28 02:45:00;;;;;;;10.90;5.25;;;;;;;8.66;73.02;96181.53;2088364;28;20052;-62
2023/05/28 02:46:01;;;;;;;13.98;5.30;;;;;;;8.65;73.16;96178.97;2088575;28;20057;-62
2023/05/28 02:47:02;;;;;;;12.60;4.75;;;;;;;8.63;73.28;96183.34;2080741;28;20053;-61
2023/05/28 02:48:04;;;;;;;13.38;5.20;;;;;;;8.59;73.24;96175.72;2088451;28;20425;-60
2023/05/28 02:49:06;;;;;;;10.35;4.82;;;;;;;8.49;73.32;96160.56;2080157;28;20128;-62
2023/05/28 02:50:07;;;;;;;12.38;5.20;;;;;;;8.58;73.52;96175.75;2080850;28;20049;-61
2023/05/28 02:51:25;;;;;;;12.32;4.97;;;;;;;8.58;73.46;96184.38;2082949;28;20080;-62
2023/05/28 02:52:44;;;;;;;12.57;5.65;;;;;;;8.61;73.73;96181.69;2083327;28;20045;-62
2023/05/28 02:53:45;;;;;;;14.80;5.25;;;;;;;8.58;73.64;96175.75;2080558;28;20481;-62
2023/05/28 02:54:46;;;;;;;13.85;5.82;;;;;;;8.61;73.64;96181.69;2072347;28;20470;-61
2023/05/28 02:55:48;;;;;;;13.13;5.13;;;;;;;8.68;73.23;96181.44;2072426;28;20050;-62
2023/05/28 02:56:49;;;;;;;14.38;5.28;;;;;;;8.74;73.00;96173.44;2079875;28;20049;-62
2023/05/28 02:57:52;;;;;;;30.70;5.60;;;;;;;8.80;72.24;96174.06;2080503;28;20056;-61
2023/05/28 02:58:54;;;;;;;14.15;5.15;;;;;;;8.91;71.35;96168.50;2080329;28;20112;-61
2023/05/28 02:59:55;;;;;;;13.63;5.50;;;;;;;8.77;71.83;96156.06;2080290;28;20064;-62
2023/05/28 03:00:56;;;;;;;13.68;4.97;;;;;;;8.83;71.80;96173.97;2088460;28;20044;-62
2023/05/28 03:02:00;;;;;;;13.20;4.90;;;;;;;8.78;72.11;96177.63;2080746;28;20049;-62
2023/05/28 03:03:01;;;;;;;11.40;5.03;;;;;;;8.73;72.18;96180.38;2080396;28;20060;-62
2023/05/28 03:04:02;;;;;;;15.52;5.80;;;;;;;8.70;72.20;96184.84;2072871;28;20045;-59
2023/05/28 03:05:05;;;;;;;13.23;5.28;;;;;;;8.70;72.52;96177.91;2072839;28;20038;-59
2023/05/28 03:06:07;;;;;;;11.07;4.90;;;;;;;8.58;72.73;96171.44;2080932;28;20049;-59
2023/05/28 03:07:17;;;;;;;14.32;5.60;;;;;;;8.68;73.09;96181.44;2081628;28;20045;-59
2023/05/28 03:08:20;;;;;;;10.40;4.90;;;;;;;8.68;72.94;96192.63;2088465;28;20069;-59
2023/05/28 03:09:21;;;;;;;10.60;4.95;;;;;;;8.68;72.73;96191.81;2097484;28;20468;-59
2023/05/28 03:10:22;;;;;;;14.40;5.28;;;;;;;8.69;72.47;96178.81;2088198;28;20053;-59
2023/05/28 03:11:25;;;;;;;12.77;4.97;;;;;;;8.70;72.54;96184.84;2080369;28;20053;-59
2023/05/28 03:12:26;;;;;;;12.18;5.32;;;;;;;8.72;72.75;96188.22;2080345;28;20053;-59
2023/05/28 03:13:27;;;;;;;10.50;4.75;;;;;;;8.68;72.54;96181.44;2080750;28;20056;-59
2023/05/28 03:14:28;;;;;;;11.57;5.20;;;;;;;8.66;72.47;96186.69;2080456;28;20060;-59
2023/05/28 03:15:31;;;;;;;16.90;5.40;;;;;;;8.68;72.40;96190.06;2080789;28;20072;-59
2023/05/28 03:16:32;;;;;;;11.23;5.00;;;;;;;8.71;71.95;96187.34;2080955;28;20072;-59
2023/05/28 03:17:33;;;;;;;12.10;4.90;;;;;;;8.73;71.80;96190.72;2088472;28;20049;-59
2023/05/28 03:18:35;;;;;;;11.80;5.18;;;;;;;8.70;71.91;96187.41;2088488;28;20056;-59
2023/05/28 03:19:36;;;;;;;12.02;4.60;;;;;;;8.69;72.21;96189.16;2080618;28;20417;-59
2023/05/28 03:20:38;;;;;;;12.98;5.35;;;;;;;8.67;72.37;96184.94;2080291;28;20054;-60
2023/05/28 03:21:40;;;;;;;10.63;4.95;;;;;;;8.65;72.50;96186.75;2080043;28;20065;-59
2023/05/28 03:22:41;;;;;;;11.45;5.40;;;;;;;8.63;72.56;96188.53;2088739;28;20456;-59
2023/05/28 03:23:42;;;;;;;15.40;5.30;;;;;;;8.60;72.44;96190.31;2088331;28;20061;-59
2023/05/28 03:25:08;;;;;;;11.73;5.28;;;;;;;8.55;72.44;96186.22;2084071;28;20048;-59
2023/05/28 03:26:09;;;;;;;13.02;5.18;;;;;;;8.50;72.63;96190.72;2088669;28;20053;-59
2023/05/28 03:27:10;;;;;;;10.40;5.18;;;;;;;8.48;72.70;96198.56;2079789;28;20061;-59
2023/05/28 03:28:12;;;;;;;10.48;4.82;;;;;;;8.45;72.55;96188.31;2080417;28;20057;-59
2023/05/28 03:29:26;;;;;;;14.55;5.47;;;;;;;8.32;72.29;96174.09;2081817;28;20053;-59
2023/05/28 03:30:45;;;;;;;11.30;5.10;;;;;;;8.37;72.56;96193.72;2091106;28;20108;-59
2023/05/28 03:31:47;;;;;;;16.13;5.60;;;;;;;8.36;72.60;96192.00;2088215;28;20053;-59
2023/05/28 03:32:52;;;;;;;9.93;5.07;;;;;;;8.34;72.79;96192.97;2081243;28;20093;-59
2023/05/28 03:33:55;;;;;;;9.77;4.70;;;;;;;8.34;72.70;96185.22;2080996;28;20046;-56
2023/05/28 03:34:56;;;;;;;12.82;5.15;;;;;;;8.32;72.87;96187.88;2088457;28;20049;-55
2023/05/28 03:36:03;;;;;;;13.30;4.93;;;;;;;8.22;72.97;96177.88;2088823;28;20052;-56
2023/05/28 03:37:05;;;;;;;14.00;6.13;;;;;;;8.30;73.09;96194.81;2080849;28;20496;-56
2023/05/28 03:38:07;;;;;;;12.82;5.13;;;;;;;8.31;73.03;96195.66;2080126;28;20466;-56
2023/05/28 03:39:08;;;;;;;12.65;5.38;;;;;;;8.37;72.99;96187.72;2080592;28;20413;-56
2023/05/28 03:40:10;;;;;;;12.40;5.22;;;;;;;8.37;73.27;96192.88;2080541;28;20057;-56
2023/05/28 03:41:11;;;;;;;14.13;5.18;;;;;;;8.27;73.17;96179.41;2080227;28;20061;-56
2023/05/28 03:42:12;;;;;;;11.88;5.30;;;;;;;8.37;73.21;96195.47;2079983;28;20061;-56
2023/05/28 03:43:13;;;;;;;10.00;5.00;;;;;;;8.37;73.30;96195.47;2080302;28;20080;-56
2023/05/28 03:44:17;;;;;;;11.95;4.88;;;;;;;8.38;73.29;96189.38;2080615;28;20061;-56
2023/05/28 03:45:18;;;;;;;13.82;5.35;;;;;;;8.38;72.94;96195.41;2088852;28;20071;-56
2023/05/28 03:46:19;;;;;;;15.35;5.70;;;;;;;8.28;73.25;96183.69;2097567;28;20057;-55
2023/05/28 03:47:21;;;;;;;12.85;5.30;;;;;;;8.37;73.01;96198.91;2088178;28;20052;-56
2023/05/28 03:48:22;;;;;;;14.77;5.95;;;;;;;8.37;73.24;96198.91;2079894;28;20060;-55
2023/05/28 03:49:23;;;;;;;13.82;5.13;;;;;;;8.36;73.05;96199.78;2080059;28;20389;-56
2023/05/28 03:50:25;;;;;;;10.55;5.47;;;;;;;8.37;73.13;96192.88;2080775;28;20485;-56
2023/05/28 03:51:27;;;;;;;12.38;5.10;;;;;;;8.37;73.28;96192.88;2080758;28;20084;-56
2023/05/28 03:52:28;;;;;;;13.70;5.18;;;;;;;8.39;73.79;96198.84;2080418;28;20073;-55
2023/05/28 03:53:29;;;;;;;13.70;5.45;;;;;;;8.40;73.26;96195.41;2079918;28;20431;-56
2023/05/28 03:54:31;;;;;;;12.38;5.55;;;;;;;8.42;73.51;96195.31;2089138;28;20362;-56
2023/05/28 03:55:33;;;;;;;11.35;5.40;;;;;;;8.46;73.42;96202.09;2087728;28;20057;-56
2023/05/28 03:56:35;;;;;;;14.80;5.25;;;;;;;8.48;73.42;96198.56;2088870;28;20055;-56
2023/05/28 03:57:38;;;;;;;14.45;5.35;;;;;;;8.51;73.42;96195.84;2079830;28;20058;-56
2023/05/28 03:58:41;;;;;;;13.98;6.03;;;;;;;8.55;73.33;96201.75;2079901;28;20065;-56
2023/05/28 03:59:42;;;;;;;16.17;5.35;;;;;;;8.58;73.30;96204.22;2079767;28;20072;-56
2023/05/28 04:00:44;;;;;;;14.13;6.03;;;;;;;8.52;73.41;96192.34;2080707;28;20060;-55
2023/05/28 04:01:45;;;;;;;12.63;5.75;;;;;;;8.60;73.37;96205.03;2079957;28;20104;-56
2023/05/28 04:02:46;;;;;;;13.55;5.32;;;;;;;8.60;73.35;96205.03;2088942;28;20049;-56
2023/05/28 04:03:48;;;;;;;12.98;5.40;;;;;;;8.62;73.11;96211.00;2088825;28;20505;-57
2023/05/28 04:04:50;;;;;;;11.98;5.40;;;;;;;8.51;72.67;96193.25;2087836;28;20053;-58
2023/05/28 04:05:52;;;;;;;14.25;5.28;;;;;;;8.59;73.06;96196.41;2088600;28;20389;-57
2023/05/28 04:06:53;;;;;;;10.60;5.18;;;;;;;8.61;72.77;96202.38;2088118;28;20397;-58
2023/05/28 04:07:54;;;;;;;16.95;5.70;;;;;;;8.59;72.64;96199.00;2080169;28;20049;-58
2023/05/28 04:08:55;;;;;;;13.85;6.10;;;;;;;8.58;72.69;96189.56;2090348;28;20041;-58
2023/05/28 04:09:56;;;;;;;12.75;5.10;;;;;;;8.71;73.08;96209.81;2081461;28;20077;-57
2023/05/28 04:10:58;;;;;;;12.38;6.13;;;;;;;8.67;72.93;96203.06;2081899;28;20049;-57
2023/05/28 04:11:59;;;;;;;13.45;5.38;;;;;;;8.73;72.97;96201.09;2082273;28;20049;-58
2023/05/28 04:13:00;;;;;;;12.52;5.22;;;;;;;8.76;73.07;96205.31;2081560;28;20065;-57
2023/05/28 04:14:01;;;;;;;12.60;5.57;;;;;;;8.77;73.03;96207.84;2082191;28;20057;-57
2023/05/28 04:15:03;;;;;;;14.13;5.53;;;;;;;8.81;73.25;96209.41;2082057;28;20057;-57
2023/05/28 04:16:05;;;;;;;13.85;5.85;;;;;;;8.84;73.42;96205.88;2081526;28;20420;-57
2023/05/28 04:17:08;;;;;;;11.10;5.55;;;;;;;8.78;73.56;96196.59;2081508;28;20053;-57
2023/05/28 04:18:09;;;;;;;11.57;5.10;;;;;;;8.91;73.45;96212.53;2090321;28;20041;-57
2023/05/28 04:19:10;;;;;;;10.73;5.82;;;;;;;8.95;73.41;96218.41;2090283;28;20049;-57
2023/05/28 04:20:12;;;;;;;13.93;5.97;;;;;;;8.99;73.59;96207.91;2081690;28;20409;-58
2023/05/28 04:21:13;;;;;;;9.45;4.55;;;;;;;9.02;73.42;96205.19;2081652;28;20049;-58
2023/05/28 04:22:14;;;;;;;16.67;5.78;;;;;;;9.04;73.45;96213.75;2089470;28;20068;-58
2023/05/28 04:23:15;;;;;;;12.20;5.40;;;;;;;9.01;73.09;96189.72;2081016;28;20053;-58
2023/05/28 04:24:17;;;;;;;13.43;5.13;;;;;;;9.17;72.68;96208.97;2089988;28;20100;-58
2023/05/28 04:25:21;;;;;;;15.88;5.68;;;;;;;9.22;72.00;96211.34;2089342;28;20056;-58
2023/05/28 04:26:22;;;;;;;13.35;5.65;;;;;;;9.23;71.86;96206.13;2081592;28;20481;-58
2023/05/28 04:27:23;;;;;;;15.27;5.80;;;;;;;9.30;72.00;96211.91;2081533;28;20060;-58
2023/05/28 04:28:27;;;;;;;10.25;5.32;;;;;;;9.31;71.35;96203.25;2090204;28;20056;-58
2023/05/28 04:29:30;;;;;;;11.75;5.28;;;;;;;9.36;71.10;96208.25;2089976;28;20052;-57
2023/05/28 04:30:31;;;;;;;14.82;5.95;;;;;;;9.33;71.47;96198.84;2081398;28;20061;-58
2023/05/28 04:31:33;;;;;;;12.18;6.10;;;;;;;9.43;71.58;96207.94;2081959;28;20049;-57
2023/05/28 04:32:34;;;;;;;13.98;5.47;;;;;;;9.46;71.57;96200.06;2081403;28;20061;-58
2023/05/28 04:33:36;;;;;;;10.05;4.97;;;;;;;9.52;71.30;96200.72;2090217;28;20053;-57
2023/05/28 04:34:40;;;;;;;16.13;5.30;;;;;;;9.54;70.77;96204.06;2098457;28;20396;-58
2023/05/28 04:35:41;;;;;;;11.93;5.90;;;;;;;9.61;70.96;96206.34;2098391;28;20060;-58
2023/05/28 04:36:43;;;;;;;10.85;5.53;;;;;;;9.67;70.99;96202.69;2089447;28;20056;-57
2023/05/28 04:37:44;;;;;;;11.38;5.55;;;;;;;9.71;71.30;96206.84;2089073;28;20052;-57
2023/05/28 04:38:45;;;;;;;10.35;5.55;;;;;;;9.78;70.62;96208.25;2080878;28;20061;-57
2023/05/28 04:39:48;;;;;;;9.93;4.95;;;;;;;9.81;70.36;96208.16;2081834;28;20053;-58
2023/05/28 04:40:53;;;;;;;12.27;5.28;;;;;;;9.82;70.26;96202.06;2090161;28;20044;-57
2023/05/28 04:41:54;;;;;;;15.30;5.68;;;;;;;9.87;70.45;96207.91;2090657;28;20052;-58
2023/05/28 04:42:55;;;;;;;14.45;6.18;;;;;;;9.91;69.78;96209.44;2090158;28;20455;-58
2023/05/28 04:43:57;;;;;;;11.70;5.65;;;;;;;9.97;69.13;96210.09;2089445;28;20049;-58
2023/05/28 04:44:59;;;;;;;11.10;5.07;;;;;;;10.00;68.22;96207.41;2089138;28;20057;-58
2023/05/28 04:46:03;;;;;;;10.93;5.45;;;;;;;9.97;68.70;96197.13;2089772;28;20056;-57
2023/05/28 04:47:06;;;;;;;13.80;5.72;;;;;;;10.09;68.70;96210.44;2089574;28;20053;-57
2023/05/28 04:48:07;;;;;;;13.63;5.65;;;;;;;10.12;68.68;96209.47;2089854;28;20061;-57
2023/05/28 04:49:10;;;;;;;11.60;5.70;;;;;;;10.15;68.06;96209.34;2089417;28;20064;-57
2023/05/28 04:50:11;;;;;;;11.13;5.43;;;;;;;10.17;68.04;96202.34;2090036;28;20103;-57
2023/05/28 04:51:13;;;;;;;17.73;5.40;;;;;;;10.24;67.73;96203.78;2098291;28;20480;-57